createdAt,value
2022-08-31T00:00:05.194Z,98470.22
2022-08-31T00:03:11.825Z,98473.28
2022-08-31T00:06:04.362Z,98469.31
2022-08-31T00:08:53.877Z,98466.19
2022-08-31T00:11:44.444Z,98467.59
2022-08-31T00:14:33.654Z,98461.75
2022-08-31T00:17:22.786Z,98475.56
2022-08-31T00:20:18.289Z,98469.72
2022-08-31T00:23:23.659Z,98465.75
2022-08-31T00:26:12.905Z,98461.59
2022-08-31T00:29:04.936Z,98463.81
2022-08-31T00:31:54.369Z,98468.91
2022-08-31T00:34:45.446Z,98460.41
2022-08-31T00:37:34.989Z,98466.31
2022-08-31T00:40:25.165Z,98473.09
2022-08-31T00:43:35.748Z,98474.50
2022-08-31T00:46:30.386Z,98470.78
2022-08-31T00:49:23.547Z,98467.44
2022-08-31T00:52:17.983Z,98461.63
2022-08-31T00:55:13.501Z,98462.84
2022-08-31T00:58:10.095Z,98464.88
2022-08-31T01:01:00.518Z,98456.56
2022-08-31T01:03:51.117Z,98449.91
2022-08-31T01:06:41.221Z,98451.31
2022-08-31T01:09:37.877Z,98453.50
2022-08-31T01:12:29.976Z,98456.38
2022-08-31T01:15:20.131Z,98458.44
2022-08-31T01:18:10.773Z,98455.09
2022-08-31T01:21:23.360Z,98460.25
2022-08-31T01:24:15.584Z,98462.09
2022-08-31T01:27:07.965Z,98466.28
2022-08-31T01:30:01.794Z,98469.78
2022-08-31T01:32:51.237Z,98466.09
2022-08-31T01:35:46.600Z,98460.94
2022-08-31T01:38:36.780Z,98467.09
2022-08-31T01:41:27.758Z,98467.94
2022-08-31T01:44:23.698Z,98468.59
2022-08-31T01:47:13.210Z,98476.16
2022-08-31T01:50:02.540Z,98472.47
2022-08-31T01:52:51.763Z,98468.78
2022-08-31T01:55:41.223Z,98473.50
2022-08-31T01:58:31.782Z,98465.44
2022-08-31T02:01:33.743Z,98462.47
2022-08-31T02:04:28.883Z,98468.88
2022-08-31T02:07:18.016Z,98469.03
2022-08-31T02:10:07.909Z,98469.41
2022-08-31T02:12:57.285Z,98464.91
2022-08-31T02:15:48.045Z,98459.53
2022-08-31T02:18:37.902Z,98454.81
2022-08-31T02:21:28.287Z,98464.91
2022-08-31T02:24:19.099Z,98454.81
2022-08-31T02:27:08.401Z,98447.78
2022-08-31T02:29:57.803Z,98447.13
2022-08-31T02:32:48.439Z,98455.34
2022-08-31T02:35:38.302Z,98450.84
2022-08-31T02:38:27.917Z,98451.84
2022-08-31T02:41:17.705Z,98458.88
2022-08-31T02:44:07.286Z,98463.59
2022-08-31T02:46:56.366Z,98464.59
2022-08-31T02:49:46.827Z,98467.28
2022-08-31T02:52:36.519Z,98470.31
2022-08-31T02:55:27.997Z,98465.16
2022-08-31T02:58:23.312Z,98466.38
2022-08-31T03:01:16.275Z,98466.38
2022-08-31T03:04:05.828Z,98463.03
2022-08-31T03:06:56.337Z,98456.84
2022-08-31T03:09:45.606Z,98458.88
2022-08-31T03:12:35.446Z,98463.38
2022-08-31T03:15:26.924Z,98458.38
2022-08-31T03:18:16.134Z,98457.59
2022-08-31T03:21:05.509Z,98457.09
2022-08-31T03:23:56.011Z,98455.44
2022-08-31T03:26:45.977Z,98453.78
2022-08-31T03:29:37.657Z,98451.47
2022-08-31T03:32:28.457Z,98457.84
2022-08-31T03:35:19.132Z,98447.13
2022-08-31T03:38:08.681Z,98453.50
2022-08-31T03:40:59.131Z,98451.47
2022-08-31T03:43:48.330Z,98448.44
2022-08-31T03:46:37.796Z,98451.75
2022-08-31T03:49:27.722Z,98454.44
2022-08-31T03:52:16.938Z,98459.59
2022-08-31T03:55:10.916Z,98459.16
2022-08-31T03:58:02.133Z,98464.50
2022-08-31T04:00:54.203Z,98460.16
2022-08-31T04:03:43.362Z,98469.03
2022-08-31T04:06:33.073Z,98470.22
2022-08-31T04:09:22.216Z,98475.59
2022-08-31T04:12:11.479Z,98473.91
2022-08-31T04:15:02.604Z,98471.59
2022-08-31T04:17:55.011Z,98479.63
2022-08-31T04:20:46.336Z,98475.66
2022-08-31T04:23:35.629Z,98471.78
2022-08-31T04:26:27.967Z,98474.63
2022-08-31T04:29:17.057Z,98470.97
2022-08-31T04:32:07.803Z,98473.63
2022-08-31T04:34:57.077Z,98473.47
2022-08-31T04:37:47.026Z,98474.63
2022-08-31T04:40:38.828Z,98467.97
2022-08-31T04:43:28.926Z,98472.34
2022-08-31T04:46:21.013Z,98466.31
2022-08-31T04:49:14.624Z,98473.84
2022-08-31T04:52:04.938Z,98486.09
2022-08-31T04:54:57.391Z,98486.56
2022-08-31T04:57:49.143Z,98494.41
2022-08-31T05:00:42.608Z,98496.47
2022-08-31T05:03:31.832Z,98495.78
2022-08-31T05:06:27.108Z,98502.09
2022-08-31T05:09:19.478Z,98504.75
2022-08-31T05:12:09.047Z,98501.91
2022-08-31T05:14:58.511Z,98507.75
2022-08-31T05:17:47.830Z,98503.19
2022-08-31T05:20:37.081Z,98504.03
2022-08-31T05:23:27.702Z,98500.16
2022-08-31T05:26:26.579Z,98496.31
2022-08-31T05:29:20.196Z,98507.09
2022-08-31T05:32:09.403Z,98508.56
2022-08-31T05:35:00.836Z,98505.91
2022-08-31T05:37:52.345Z,98510.53
2022-08-31T05:40:42.912Z,98513.50
2022-08-31T05:43:32.008Z,98510.72
2022-08-31T05:46:21.268Z,98521.09
2022-08-31T05:49:12.084Z,98514.63
2022-08-31T05:52:01.879Z,98514.25
2022-08-31T05:54:50.984Z,98507.97
2022-08-31T05:57:41.556Z,98506.38
2022-08-31T06:00:31.029Z,98514.97
2022-08-31T06:03:20.324Z,98510.94
2022-08-31T06:06:10.322Z,98506.09
2022-08-31T06:09:00.430Z,98506.66
2022-08-31T06:11:51.315Z,98503.88
2022-08-31T06:14:45.575Z,98504.38
2022-08-31T06:17:37.579Z,98504.75
2022-08-31T06:20:26.794Z,98508.16
2022-08-31T06:23:16.540Z,98513.19
2022-08-31T06:26:13.087Z,98515.59
2022-08-31T06:29:07.149Z,98516.28
2022-08-31T06:31:57.885Z,98515.94
2022-08-31T06:34:47.101Z,98516.66
2022-08-31T06:37:36.641Z,98517.34
2022-08-31T06:40:28.631Z,98519.53
2022-08-31T06:43:18.117Z,98512.81
2022-08-31T06:46:08.252Z,98508.75
2022-08-31T06:48:59.063Z,98513.97
2022-08-31T06:51:48.823Z,98510.13
2022-08-31T06:54:38.189Z,98525.06
2022-08-31T06:57:27.595Z,98517.25
2022-08-31T07:00:17.195Z,98523.50
2022-08-31T07:03:23.011Z,98518.34
2022-08-31T07:06:17.955Z,98521.94
2022-08-31T07:09:10.776Z,98516.56
2022-08-31T07:11:59.937Z,98527.56
2022-08-31T07:14:54.769Z,98516.25
2022-08-31T07:17:44.716Z,98518.75
2022-08-31T07:20:33.993Z,98522.94
2022-08-31T07:23:24.543Z,98518.81
2022-08-31T07:26:18.026Z,98530.44
2022-08-31T07:29:07.546Z,98528.63
2022-08-31T07:31:57.497Z,98539.19
2022-08-31T07:34:56.292Z,98533.19
2022-08-31T07:38:05.355Z,98532.19
2022-08-31T07:41:13.219Z,98538.44
2022-08-31T07:44:02.438Z,98545.50
2022-08-31T07:46:55.295Z,98537.41
2022-08-31T07:49:51.139Z,98540.97
2022-08-31T07:52:53.018Z,98545.56
2022-08-31T07:55:45.771Z,98554.31
2022-08-31T07:58:39.754Z,98548.69
2022-08-31T08:01:32.230Z,98548.50
2022-08-31T08:04:26.286Z,98544.78
2022-08-31T08:07:17.418Z,98548.91
2022-08-31T08:10:14.385Z,98544.16
2022-08-31T08:13:05.763Z,98554.31
2022-08-31T08:15:56.790Z,98555.56
2022-08-31T08:18:47.076Z,98557.00
2022-08-31T08:21:36.508Z,98549.75
2022-08-31T08:24:29.384Z,98547.88
2022-08-31T08:27:19.210Z,98553.44
2022-08-31T08:30:13.701Z,98557.59
2022-08-31T08:33:04.922Z,98557.75
2022-08-31T08:36:00.437Z,98561.47
2022-08-31T08:38:54.001Z,98549.97
2022-08-31T08:41:46.269Z,98542.84
2022-08-31T08:44:38.297Z,98550.34
2022-08-31T08:47:37.906Z,98553.41
2022-08-31T08:50:32.094Z,98553.13
2022-08-31T08:53:27.111Z,98552.25
2022-08-31T08:56:32.210Z,98544.25
2022-08-31T08:59:22.537Z,98555.38
2022-08-31T09:02:20.405Z,98551.34
2022-08-31T09:05:39.298Z,98554.59
2022-08-31T09:09:08.147Z,98554.19
2022-08-31T09:12:25.827Z,98547.75
2022-08-31T09:15:43.167Z,98554.03
2022-08-31T09:18:49.027Z,98556.16
2022-08-31T09:21:46.056Z,98554.13
2022-08-31T09:24:35.291Z,98559.16
2022-08-31T09:27:46.907Z,98543.94
2022-08-31T09:30:52.438Z,98549.91
2022-08-31T09:33:51.165Z,98541.75
2022-08-31T09:36:42.187Z,98549.81
2022-08-31T09:39:37.223Z,98542.66
2022-08-31T09:42:33.640Z,98547.16
2022-08-31T09:45:38.710Z,98543.53
2022-08-31T09:48:53.406Z,98539.88
2022-08-31T09:51:44.183Z,98533.09
2022-08-31T09:54:50.918Z,98526.22
2022-08-31T09:57:54.190Z,98529.09
2022-08-31T10:00:51.107Z,98523.47
2022-08-31T10:03:45.571Z,98523.38
2022-08-31T10:06:49.710Z,98535.69
2022-08-31T10:09:47.098Z,98520.41
2022-08-31T10:12:48.237Z,98528.38
2022-08-31T10:15:48.341Z,98517.22
2022-08-31T10:18:57.672Z,98518.63
2022-08-31T10:21:55.059Z,98520.16
2022-08-31T10:24:49.419Z,98520.72
2022-08-31T10:27:48.140Z,98523.91
2022-08-31T10:30:48.706Z,98525.00
2022-08-31T10:34:03.888Z,98516.38
2022-08-31T10:37:03.796Z,98520.09
2022-08-31T10:39:59.873Z,98521.81
2022-08-31T10:43:09.563Z,98516.78
2022-08-31T10:45:59.722Z,98516.84
2022-08-31T10:48:54.414Z,98509.63
2022-08-31T10:52:02.355Z,98503.16
2022-08-31T10:55:06.553Z,98514.63
2022-08-31T10:58:08.638Z,98511.69
2022-08-31T11:01:07.635Z,98512.59
2022-08-31T11:04:41.764Z,98507.97
2022-08-31T11:07:52.208Z,98512.13
2022-08-31T11:10:50.186Z,98518.38
2022-08-31T11:14:01.695Z,98510.97
2022-08-31T11:17:21.488Z,98512.03
2022-08-31T11:21:01.630Z,98510.97
2022-08-31T11:24:19.457Z,98506.28
2022-08-31T11:27:23.450Z,98506.56
2022-08-31T11:30:24.488Z,98513.84
2022-08-31T11:33:28.288Z,98507.25
2022-08-31T11:36:51.116Z,98502.63
2022-08-31T11:39:45.505Z,98499.31
2022-08-31T11:42:57.843Z,98502.00
2022-08-31T11:45:47.102Z,98496.25
2022-08-31T11:49:00.302Z,98498.41
2022-08-31T11:51:55.764Z,98500.25
2022-08-31T11:55:08.880Z,98497.50
2022-08-31T11:58:31.828Z,98492.84
2022-08-31T12:01:45.291Z,98500.69
2022-08-31T12:05:07.878Z,98503.84
2022-08-31T12:07:58.445Z,98506.72
2022-08-31T12:11:03.385Z,98502.28
2022-08-31T12:14:02.587Z,98501.88
2022-08-31T12:17:13.219Z,98506.09
2022-08-31T12:20:12.273Z,98496.88
2022-08-31T12:23:36.284Z,98502.75
2022-08-31T12:26:59.607Z,98504.47
2022-08-31T12:29:49.979Z,98507.19
2022-08-31T12:32:45.542Z,98514.81
2022-08-31T12:35:35.284Z,98517.84
2022-08-31T12:38:28.148Z,98510.44
2022-08-31T12:41:20.258Z,98514.22
2022-08-31T12:44:21.307Z,98510.44
2022-08-31T12:47:25.306Z,98516.22
2022-08-31T12:50:22.651Z,98520.31
2022-08-31T12:54:01.425Z,98521.06
2022-08-31T12:57:01.977Z,98519.38
2022-08-31T13:00:06.909Z,98508.47
2022-08-31T13:03:00.706Z,98517.94
2022-08-31T13:06:08.249Z,98512.78
2022-08-31T13:08:59.983Z,98511.72
2022-08-31T13:11:55.029Z,98517.41
2022-08-31T13:14:45.243Z,98517.44
2022-08-31T13:17:40.345Z,98521.00
2022-08-31T13:20:42.925Z,98516.28
2022-08-31T13:23:38.523Z,98506.59
2022-08-31T13:26:27.805Z,98503.25
2022-08-31T13:29:25.135Z,98513.91
2022-08-31T13:32:32.865Z,98508.59
2022-08-31T13:35:28.245Z,98512.81
2022-08-31T13:38:23.049Z,98512.47
2022-08-31T13:41:24.181Z,98506.66
2022-08-31T13:44:15.276Z,98508.31
2022-08-31T13:47:12.999Z,98508.81
2022-08-31T13:50:12.969Z,98506.09
2022-08-31T13:56:43.428Z,98503.28
2022-08-31T13:59:37.330Z,98506.34
2022-08-31T14:02:37.299Z,98509.41
2022-08-31T14:05:36.209Z,98507.28
2022-08-31T14:08:30.577Z,98510.94
2022-08-31T14:11:39.382Z,98504.69
2022-08-31T14:14:40.194Z,98503.00
2022-08-31T14:17:30.862Z,98500.88
2022-08-31T14:20:36.374Z,98502.28
2022-08-31T14:23:37.462Z,98496.50
2022-08-31T14:26:28.058Z,98487.16
2022-08-31T14:29:18.411Z,98489.63
2022-08-31T14:32:08.059Z,98491.41
2022-08-31T14:34:58.587Z,98490.44
2022-08-31T14:37:47.873Z,98484.63
2022-08-31T14:40:39.094Z,98485.78
2022-08-31T14:43:28.342Z,98478.06
2022-08-31T14:46:28.120Z,98481.34
2022-08-31T14:49:17.727Z,98475.09
2022-08-31T14:52:07.192Z,98475.28
2022-08-31T14:55:02.789Z,98465.09
2022-08-31T14:58:02.276Z,98467.81
2022-08-31T15:00:53.976Z,98468.50
2022-08-31T15:03:45.107Z,98477.97
2022-08-31T15:06:35.116Z,98469.41
2022-08-31T15:09:24.283Z,98462.16
2022-08-31T15:12:14.912Z,98467.03
2022-08-31T15:15:07.574Z,98467.91
2022-08-31T15:18:00.193Z,98480.84
2022-08-31T15:20:49.637Z,98478.00
2022-08-31T15:23:41.791Z,98475.41
2022-08-31T15:26:31.076Z,98481.78
2022-08-31T15:29:24.673Z,98480.41
2022-08-31T15:32:17.557Z,98491.16
2022-08-31T15:35:08.753Z,98484.28
2022-08-31T15:38:01.364Z,98486.31
2022-08-31T15:40:51.499Z,98489.66
2022-08-31T15:43:42.726Z,98501.97
2022-08-31T15:46:45.805Z,98505.75
2022-08-31T15:49:40.265Z,98506.56
2022-08-31T15:52:29.944Z,98500.16
2022-08-31T15:55:26.584Z,98494.25
2022-08-31T15:58:16.205Z,98496.47
2022-08-31T16:01:06.099Z,98501.28
2022-08-31T16:03:58.804Z,98493.97
2022-08-31T16:06:49.584Z,98493.66
2022-08-31T16:09:40.809Z,98502.56
2022-08-31T16:12:30.340Z,98496.69
2022-08-31T16:15:24.428Z,98493.13
2022-08-31T16:18:13.977Z,98495.09
2022-08-31T16:21:07.359Z,98503.13
2022-08-31T16:24:01.702Z,98496.94
2022-08-31T16:26:56.562Z,98501.84
2022-08-31T16:29:47.469Z,98496.75
2022-08-31T16:32:36.771Z,98511.81
2022-08-31T16:35:26.185Z,98511.00
2022-08-31T16:38:16.109Z,98509.09
2022-08-31T16:41:07.248Z,98502.09
2022-08-31T16:44:18.100Z,98507.78
2022-08-31T16:47:08.411Z,98505.75
2022-08-31T16:49:59.006Z,98506.47
2022-08-31T16:52:51.035Z,98509.25
2022-08-31T16:55:42.015Z,98506.47
2022-08-31T16:58:51.078Z,98504.66
2022-08-31T17:01:44.665Z,98501.34
2022-08-31T17:04:51.401Z,98505.34
2022-08-31T17:07:42.704Z,98515.06
2022-08-31T17:10:34.407Z,98517.63
2022-08-31T17:13:23.913Z,98522.69
2022-08-31T17:16:21.176Z,98521.22
2022-08-31T17:19:13.812Z,98526.31
2022-08-31T17:22:07.295Z,98521.94
2022-08-31T17:24:57.780Z,98525.72
2022-08-31T17:27:51.248Z,98540.34
2022-08-31T17:30:42.669Z,98535.47
2022-08-31T17:33:33.287Z,98541.59
2022-08-31T17:36:25.225Z,98542.25
2022-08-31T17:39:16.858Z,98546.06
2022-08-31T17:42:07.153Z,98553.44
2022-08-31T17:44:59.011Z,98556.19
2022-08-31T17:47:48.370Z,98551.94
2022-08-31T17:50:43.203Z,98555.75
2022-08-31T17:53:34.086Z,98566.19
2022-08-31T17:56:25.186Z,98565.63
2022-08-31T17:59:19.425Z,98574.81
2022-08-31T18:02:13.085Z,98570.91
2022-08-31T18:05:09.291Z,98568.63
2022-08-31T18:08:02.512Z,98583.03
2022-08-31T18:10:54.424Z,98590.34
2022-08-31T18:13:44.178Z,98591.38
2022-08-31T18:16:33.546Z,98596.59
2022-08-31T18:19:27.462Z,98602.03
2022-08-31T18:22:21.351Z,98604.97
2022-08-31T18:25:12.788Z,98606.22
2022-08-31T18:28:03.348Z,98607.47
2022-08-31T18:30:52.867Z,98612.91
2022-08-31T18:33:42.676Z,98613.25
2022-08-31T18:36:38.819Z,98613.69
2022-08-31T18:39:51.170Z,98614.28
2022-08-31T18:42:59.240Z,98609.13
2022-08-31T18:45:50.469Z,98612.22
2022-08-31T18:49:01.091Z,98606.19
2022-08-31T18:51:57.566Z,98611.56
2022-08-31T18:54:49.124Z,98617.75
2022-08-31T18:57:46.379Z,98618.56
2022-08-31T19:00:40.639Z,98616.03
2022-08-31T19:03:30.347Z,98616.84
2022-08-31T19:06:23.152Z,98622.41
2022-08-31T19:09:14.304Z,98628.38
2022-08-31T19:12:04.996Z,98624.63
2022-08-31T19:14:55.348Z,98625.44
2022-08-31T19:17:49.279Z,98625.41
2022-08-31T19:20:38.650Z,98635.31
2022-08-31T19:23:28.286Z,98634.44
2022-08-31T19:26:24.039Z,98634.84
2022-08-31T19:29:22.926Z,98630.25
2022-08-31T19:32:13.851Z,98633.72
2022-08-31T19:35:07.188Z,98624.78
2022-08-31T19:37:57.352Z,98628.44
2022-08-31T19:40:46.782Z,98622.38
2022-08-31T19:43:47.335Z,98627.50
2022-08-31T19:46:52.521Z,98624.97
2022-08-31T19:49:43.203Z,98631.13
2022-08-31T19:52:35.765Z,98628.38
2022-08-31T19:55:24.997Z,98625.66
2022-08-31T19:58:14.130Z,98632.59
2022-08-31T20:01:10.527Z,98631.72
2022-08-31T20:04:00.320Z,98626.31
2022-08-31T20:06:52.222Z,98625.41
2022-08-31T20:09:43.278Z,98630.53
2022-08-31T20:12:33.327Z,98632.94
2022-08-31T20:15:22.551Z,98634.75
2022-08-31T20:18:12.886Z,98640.88
2022-08-31T20:21:02.679Z,98634.19
2022-08-31T20:23:55.498Z,98631.25
2022-08-31T20:26:51.803Z,98640.72
2022-08-31T20:29:41.480Z,98635.09
2022-08-31T20:32:31.284Z,98634.81
2022-08-31T20:35:20.577Z,98637.22
2022-08-31T20:38:13.162Z,98641.13
2022-08-31T20:41:04.364Z,98646.69
2022-08-31T20:43:56.797Z,98648.94
2022-08-31T20:47:06.929Z,98649.94
2022-08-31T20:49:58.672Z,98651.16
2022-08-31T20:52:47.816Z,98656.53
2022-08-31T20:55:38.258Z,98653.19
2022-08-31T20:58:27.547Z,98657.75
2022-08-31T21:01:18.228Z,98662.28
2022-08-31T21:04:09.494Z,98659.41
2022-08-31T21:07:01.033Z,98654.88
2022-08-31T21:09:51.072Z,98655.25
2022-08-31T21:12:40.319Z,98661.91
2022-08-31T21:15:32.774Z,98652.19
2022-08-31T21:18:23.414Z,98647.63
2022-08-31T21:21:17.503Z,98653.19
2022-08-31T21:24:07.653Z,98641.25
2022-08-31T21:26:59.430Z,98633.38
2022-08-31T21:29:49.997Z,98639.56
2022-08-31T21:32:40.825Z,98642.91
2022-08-31T21:35:31.485Z,98640.41
2022-08-31T21:38:20.978Z,98640.22
2022-08-31T21:41:12.250Z,98635.88
2022-08-31T21:44:01.929Z,98635.88
2022-08-31T21:46:51.309Z,98633.38
2022-08-31T21:49:40.547Z,98631.69
2022-08-31T21:52:31.099Z,98630.88
2022-08-31T21:55:20.414Z,98636.44
2022-08-31T21:58:10.718Z,98633.75
2022-08-31T22:01:00.194Z,98632.44
2022-08-31T22:03:58.561Z,98641.53
2022-08-31T22:06:49.766Z,98639.03
2022-08-31T22:09:40.766Z,98639.03
2022-08-31T22:12:30.248Z,98636.53
2022-08-31T22:15:23.827Z,98632.19
2022-08-31T22:21:31.008Z,98645.63
2022-08-31T22:24:27.332Z,98641.28
2022-08-31T22:27:18.702Z,98637.75
2022-08-31T22:30:09.898Z,98637.94
2022-08-31T22:32:59.208Z,98636.09
2022-08-31T22:35:48.513Z,98638.97
2022-08-31T22:38:38.156Z,98635.63
2022-08-31T22:41:27.558Z,98629.59
2022-08-31T22:44:27.034Z,98633.31
2022-08-31T22:47:16.130Z,98636.00
2022-08-31T22:50:06.600Z,98640.72
2022-08-31T22:52:55.818Z,98636.38
2022-08-31T22:55:44.979Z,98633.06
2022-08-31T22:58:34.137Z,98639.25
2022-08-31T23:01:27.887Z,98634.06
2022-08-31T23:04:20.605Z,98642.50
2022-08-31T23:07:11.899Z,98633.44
2022-08-31T23:10:02.859Z,98642.06
2022-08-31T23:12:52.436Z,98644.56
2022-08-31T23:15:45.010Z,98635.84
2022-08-31T23:18:35.719Z,98634.19
2022-08-31T23:21:25.841Z,98638.91
2022-08-31T23:24:18.012Z,98637.44
2022-08-31T23:27:09.867Z,98635.56
2022-08-31T23:29:59.074Z,98639.91
2022-08-31T23:32:48.437Z,98638.25
2022-08-31T23:35:40.324Z,98630.84
2022-08-31T23:38:32.444Z,98637.88
2022-08-31T23:41:26.012Z,98632.50
2022-08-31T23:44:16.631Z,98634.19
2022-08-31T23:47:06.151Z,98627.13
2022-08-31T23:49:55.801Z,98618.06
2022-08-31T23:52:46.564Z,98613.72
2022-08-31T23:55:35.906Z,98608.34
2022-08-31T23:58:25.068Z,98600.28
